createdAt,value
2019-02-22T00:02:18.693Z,39.14
2019-02-22T00:04:48.299Z,40.05
2019-02-22T00:07:17.870Z,40.10
2019-02-22T00:09:49.689Z,40.38
2019-02-22T00:12:18.902Z,40.15
2019-02-22T00:14:48.502Z,40.05
2019-02-22T00:17:18.134Z,40.05
2019-02-22T00:19:48.655Z,40.61
2019-02-22T00:22:18.387Z,40.25
2019-02-22T00:24:47.985Z,40.18
2019-02-22T00:27:17.569Z,40.47
2019-02-22T00:29:47.186Z,41.09
2019-02-22T00:32:16.743Z,41.05
2019-02-22T00:34:46.302Z,41.43
2019-02-22T00:37:15.882Z,41.42
2019-02-22T00:39:45.451Z,41.82
2019-02-22T00:42:15.078Z,41.70
2019-02-22T00:44:44.728Z,42.11
2019-02-22T00:47:14.316Z,42.31
2019-02-22T00:49:43.958Z,42.74
2019-02-22T00:52:13.477Z,42.45
2019-02-22T00:54:43.132Z,42.24
2019-02-22T00:57:12.674Z,42.33
2019-02-22T00:59:42.233Z,42.41
2019-02-22T01:02:11.850Z,42.15
2019-02-22T01:04:41.454Z,41.57
2019-02-22T01:07:11.083Z,41.96
2019-02-22T01:09:40.646Z,42.47
2019-02-22T01:12:10.223Z,42.74
2019-02-22T01:14:39.816Z,42.82
2019-02-22T01:17:09.409Z,42.32
2019-02-22T01:19:39.044Z,42.24
2019-02-22T01:22:08.630Z,41.90
2019-02-22T01:24:38.189Z,42.20
2019-02-22T01:27:07.787Z,43.41
2019-02-22T01:29:37.366Z,41.83
2019-02-22T01:32:07.010Z,41.63
2019-02-22T01:34:36.584Z,41.38
2019-02-22T01:37:06.178Z,41.30
2019-02-22T01:39:35.757Z,41.11
2019-02-22T01:42:05.441Z,40.91
2019-02-22T01:44:35.038Z,40.38
2019-02-22T01:47:04.651Z,40.45
2019-02-22T01:49:34.215Z,39.69
2019-02-22T01:52:03.841Z,39.26
2019-02-22T01:54:33.395Z,38.79
2019-02-22T01:57:03.024Z,39.03
2019-02-22T01:59:32.606Z,37.75
2019-02-22T02:02:02.153Z,38.05
2019-02-22T02:04:31.727Z,37.72
2019-02-22T02:07:01.298Z,37.79
2019-02-22T02:09:30.946Z,37.88
2019-02-22T02:12:01.998Z,37.93
2019-02-22T02:14:31.763Z,37.50
2019-02-22T02:17:01.341Z,37.92
2019-02-22T02:19:30.922Z,37.25
2019-02-22T02:22:00.642Z,37.10
2019-02-22T02:24:30.221Z,37.29
2019-02-22T02:26:59.796Z,37.89
2019-02-22T02:29:29.404Z,37.94
2019-02-22T02:31:58.976Z,38.11
2019-02-22T02:34:28.637Z,38.22
2019-02-22T02:36:58.221Z,38.61
2019-02-22T02:39:27.790Z,38.57
2019-02-22T02:41:57.384Z,38.91
2019-02-22T02:44:26.999Z,38.81
2019-02-22T02:46:56.596Z,38.28
2019-02-22T02:49:26.162Z,38.79
2019-02-22T02:51:55.763Z,38.97
2019-02-22T02:54:25.366Z,39.36
2019-02-22T02:56:54.971Z,39.15
2019-02-22T02:59:24.593Z,39.44
2019-02-22T03:01:54.185Z,39.55
2019-02-22T03:04:23.754Z,39.13
2019-02-22T03:07:12.165Z,39.78
2019-02-22T03:09:41.760Z,39.61
2019-02-22T03:12:11.315Z,40.35
2019-02-22T03:14:40.907Z,40.34
2019-02-22T03:17:10.513Z,40.67
2019-02-22T03:19:40.072Z,40.64
2019-02-22T03:22:09.667Z,39.95
2019-02-22T03:24:39.234Z,40.05
2019-02-22T03:27:08.811Z,40.21
2019-02-22T03:29:38.457Z,40.10
2019-02-22T03:32:08.006Z,40.32
2019-02-22T03:34:37.591Z,40.42
2019-02-22T03:37:07.193Z,40.12
2019-02-22T03:39:36.770Z,40.09
2019-02-22T03:42:06.396Z,40.15
2019-02-22T03:44:35.973Z,40.82
2019-02-22T03:47:05.574Z,40.77
2019-02-22T03:49:35.163Z,40.48
2019-02-22T03:52:23.253Z,40.49
2019-02-22T03:54:52.874Z,40.12
2019-02-22T03:57:22.558Z,40.57
2019-02-22T03:59:52.242Z,40.76
2019-02-22T04:02:22.069Z,41.09
2019-02-22T04:04:51.671Z,41.16
2019-02-22T04:07:21.278Z,41.39
2019-02-22T04:09:50.849Z,41.29
2019-02-22T04:12:20.433Z,41.17
2019-02-22T04:14:50.021Z,40.99
2019-02-22T04:17:19.581Z,41.05
2019-02-22T04:19:49.228Z,41.26
2019-02-22T04:22:18.801Z,40.86
2019-02-22T04:24:48.393Z,40.85
2019-02-22T04:27:17.975Z,41.13
2019-02-22T04:29:47.557Z,42.01
2019-02-22T04:32:17.185Z,41.46
2019-02-22T04:34:46.754Z,42.38
2019-02-22T04:37:16.400Z,42.98
2019-02-22T04:39:46.048Z,43.21
2019-02-22T04:42:15.665Z,43.23
2019-02-22T04:44:45.341Z,42.98
2019-02-22T04:47:15.004Z,42.51
2019-02-22T04:49:44.625Z,41.93
2019-02-22T04:52:14.213Z,42.25
2019-02-22T04:54:43.776Z,42.33
2019-02-22T04:57:13.405Z,42.50
2019-02-22T04:59:43.021Z,42.04
2019-02-22T05:02:12.663Z,41.67
2019-02-22T05:04:42.281Z,41.40
2019-02-22T05:07:11.911Z,40.91
2019-02-22T05:09:41.532Z,41.58
2019-02-22T05:12:11.444Z,42.34
2019-02-22T05:14:41.059Z,42.58
2019-02-22T05:17:10.732Z,42.34
2019-02-22T05:19:40.317Z,42.76
2019-02-22T05:22:09.931Z,42.47
2019-02-22T05:24:39.557Z,42.56
2019-02-22T05:27:09.145Z,42.79
2019-02-22T05:29:38.783Z,42.26
2019-02-22T05:32:09.301Z,42.15
2019-02-22T05:34:38.953Z,41.95
2019-02-22T05:37:08.541Z,41.92
2019-02-22T05:39:38.168Z,41.87
2019-02-22T05:42:07.016Z,41.66
2019-02-22T05:44:36.628Z,40.68
2019-02-22T05:47:06.256Z,41.18
2019-02-22T05:49:35.919Z,41.20
2019-02-22T05:52:05.507Z,40.69
2019-02-22T05:54:35.129Z,47.14
2019-02-22T05:57:04.869Z,40.67
2019-02-22T05:59:34.461Z,40.63
2019-02-22T06:02:04.111Z,40.57
2019-02-22T06:04:33.715Z,40.01
2019-02-22T06:07:03.327Z,40.35
2019-02-22T06:09:32.939Z,40.36
2019-02-22T06:12:02.620Z,40.34
2019-02-22T06:14:32.262Z,39.65
2019-02-22T06:17:01.888Z,39.39
2019-02-22T06:19:31.483Z,39.41
2019-02-22T06:22:01.115Z,40.26
2019-02-22T06:24:30.852Z,39.96
2019-02-22T06:27:00.464Z,40.01
2019-02-22T06:29:30.063Z,39.89
2019-02-22T06:31:59.688Z,40.50
2019-02-22T06:34:29.358Z,40.44
2019-02-22T06:37:02.137Z,40.24
2019-02-22T06:39:30.394Z,40.25
2019-02-22T06:42:00.063Z,40.84
2019-02-22T06:44:29.665Z,41.02
2019-02-22T06:46:59.307Z,40.24
2019-02-22T06:49:28.971Z,40.48
2019-02-22T06:51:58.609Z,40.21
2019-02-22T06:54:28.373Z,40.84
2019-02-22T06:56:58.029Z,40.68
2019-02-22T06:59:27.639Z,41.62
2019-02-22T07:01:57.346Z,41.25
2019-02-22T07:04:26.958Z,40.59
2019-02-22T07:06:56.705Z,39.69
2019-02-22T07:09:26.338Z,40.31
2019-02-22T07:11:59.120Z,40.27
2019-02-22T07:14:28.844Z,39.71
2019-02-22T07:16:58.463Z,39.65
2019-02-22T07:19:28.128Z,39.52
2019-02-22T07:22:00.485Z,38.69
2019-02-22T07:24:30.282Z,38.65
2019-02-22T07:27:00.062Z,38.64
2019-02-22T07:29:29.777Z,38.73
2019-02-22T07:32:06.036Z,43.93
2019-02-22T07:34:30.936Z,39.00
2019-02-22T07:37:00.591Z,39.33
2019-02-22T07:39:30.235Z,39.58
2019-02-22T07:41:59.860Z,39.73
2019-02-22T07:44:29.447Z,39.30
2019-02-22T07:46:59.084Z,39.48
2019-02-22T07:49:28.968Z,39.12
2019-02-22T07:51:58.665Z,39.21
2019-02-22T07:54:28.413Z,39.32
2019-02-22T07:56:58.010Z,39.56
2019-02-22T07:59:27.713Z,39.33
2019-02-22T08:01:57.328Z,39.04
2019-02-22T08:04:27.027Z,39.66
2019-02-22T08:06:56.803Z,39.58
2019-02-22T08:09:26.610Z,39.72
2019-02-22T08:11:56.334Z,39.07
2019-02-22T08:14:26.037Z,39.64
2019-02-22T08:16:55.793Z,39.97
2019-02-22T08:19:25.486Z,39.72
2019-02-22T08:21:55.162Z,39.60
2019-02-22T08:24:26.001Z,39.26
2019-02-22T08:26:55.829Z,39.19
2019-02-22T08:29:25.598Z,38.98
2019-02-22T08:31:55.327Z,39.18
2019-02-22T08:34:24.936Z,39.05
2019-02-22T08:36:54.531Z,38.92
2019-02-22T08:39:24.239Z,38.85
2019-02-22T08:41:54.038Z,39.01
2019-02-22T08:44:23.642Z,38.88
2019-02-22T08:46:53.376Z,38.73
2019-02-22T08:49:23.062Z,38.98
2019-02-22T08:51:52.759Z,39.30
2019-02-22T08:54:22.432Z,38.81
2019-02-22T08:56:52.020Z,38.30
2019-02-22T08:59:21.640Z,38.21
2019-02-22T09:01:51.275Z,38.08
2019-02-22T09:04:20.898Z,37.82
2019-02-22T09:06:52.451Z,38.06
2019-02-22T09:09:22.318Z,37.91
2019-02-22T09:11:52.027Z,38.38
2019-02-22T09:14:21.600Z,38.36
2019-02-22T09:16:51.216Z,39.00
2019-02-22T09:19:20.924Z,37.89
2019-02-22T09:21:50.552Z,38.06
2019-02-22T09:24:20.216Z,39.04
2019-02-22T09:26:49.907Z,38.95
2019-02-22T09:29:19.465Z,38.73
2019-02-22T09:31:49.109Z,39.31
2019-02-22T09:34:18.709Z,39.03
2019-02-22T09:36:48.370Z,38.71
2019-02-22T09:39:18.014Z,39.23
2019-02-22T09:41:47.661Z,39.22
2019-02-22T09:44:17.286Z,39.03
2019-02-22T09:46:46.701Z,38.75
2019-02-22T09:49:16.343Z,38.65
2019-02-22T09:51:46.029Z,38.32
2019-02-22T09:54:15.649Z,38.10
2019-02-22T09:56:45.271Z,38.36
2019-02-22T09:59:14.901Z,38.52
2019-02-22T10:01:44.531Z,39.18
2019-02-22T10:04:14.118Z,38.73
2019-02-22T10:06:43.784Z,39.10
2019-02-22T10:09:13.417Z,43.93
2019-02-22T10:11:43.073Z,40.24
2019-02-22T10:14:12.712Z,40.09
2019-02-22T10:16:42.388Z,40.40
2019-02-22T10:19:12.005Z,39.93
2019-02-22T10:21:41.655Z,39.61
2019-02-22T10:24:11.263Z,39.19
2019-02-22T10:26:40.849Z,39.31
2019-02-22T10:29:10.511Z,38.97
2019-02-22T10:31:40.090Z,38.77
2019-02-22T10:34:09.759Z,39.14
2019-02-22T10:36:45.198Z,39.79
2019-02-22T10:39:10.736Z,39.84
2019-02-22T10:41:40.370Z,40.15
2019-02-22T10:44:17.439Z,40.56
2019-02-22T10:46:41.313Z,41.04
2019-02-22T10:49:10.895Z,40.82
2019-02-22T10:51:40.507Z,40.94
2019-02-22T10:54:10.124Z,40.52
2019-02-22T10:56:39.750Z,40.39
2019-02-22T10:59:09.367Z,39.94
2019-02-22T11:01:38.960Z,40.69
2019-02-22T11:04:08.584Z,40.34
2019-02-22T11:06:38.187Z,40.63
2019-02-22T11:09:08.755Z,40.98
2019-02-22T11:11:38.441Z,40.12
2019-02-22T11:14:08.054Z,40.45
2019-02-22T11:16:37.676Z,40.16
2019-02-22T11:19:07.302Z,40.50
2019-02-22T11:21:36.926Z,40.52
2019-02-22T11:24:06.533Z,40.74
2019-02-22T11:26:36.144Z,41.64
2019-02-22T11:29:05.784Z,41.76
2019-02-22T11:31:35.424Z,41.80
2019-02-22T11:34:05.011Z,41.72
2019-02-22T11:36:34.651Z,41.53
2019-02-22T11:39:05.637Z,41.63
2019-02-22T11:41:35.214Z,42.01
2019-02-22T11:44:04.849Z,42.36
2019-02-22T11:46:34.441Z,42.64
2019-02-22T11:49:04.081Z,42.31
2019-02-22T11:51:33.781Z,43.00
2019-02-22T11:54:03.499Z,42.46
2019-02-22T11:56:33.129Z,42.86
2019-02-22T11:59:02.708Z,42.49
2019-02-22T12:01:32.444Z,43.02
2019-02-22T12:04:02.034Z,42.13
2019-02-22T12:06:31.637Z,42.74
2019-02-22T12:09:01.294Z,43.25
2019-02-22T12:11:30.891Z,43.92
2019-02-22T12:14:00.556Z,44.19
2019-02-22T12:16:30.145Z,44.25
2019-02-22T12:18:59.735Z,44.86
2019-02-22T12:21:29.347Z,44.46
2019-02-22T12:23:58.959Z,43.92
2019-02-22T12:26:28.615Z,43.72
2019-02-22T12:28:58.199Z,44.38
2019-02-22T12:31:27.791Z,45.29
2019-02-22T12:33:57.480Z,45.63
2019-02-22T12:36:27.104Z,46.72
2019-02-22T12:38:56.717Z,46.51
2019-02-22T12:41:26.326Z,47.12
2019-02-22T12:43:55.934Z,46.56
2019-02-22T12:46:25.522Z,47.18
2019-02-22T12:48:55.242Z,48.01
2019-02-22T12:51:24.939Z,49.47
2019-02-22T12:53:54.530Z,49.29
2019-02-22T12:56:53.192Z,50.54
2019-02-22T12:58:55.486Z,52.67
2019-02-22T13:01:25.109Z,53.30
2019-02-22T13:03:54.775Z,54.29
2019-02-22T13:06:24.350Z,54.54
2019-02-22T13:08:53.937Z,54.85
2019-02-22T13:11:23.561Z,54.45
2019-02-22T13:13:53.153Z,55.02
2019-02-22T13:16:22.786Z,55.96
2019-02-22T13:18:52.385Z,59.60
2019-02-22T13:21:21.993Z,62.01
2019-02-22T13:23:51.611Z,62.84
2019-02-22T13:26:21.224Z,63.28
2019-02-22T13:28:50.943Z,66.59
2019-02-22T13:31:29.744Z,63.79
2019-02-22T13:33:51.908Z,65.99
2019-02-22T13:36:22.210Z,66.33
2019-02-22T13:38:51.808Z,67.09
2019-02-22T13:41:21.461Z,69.16
2019-02-22T13:43:51.142Z,71.00
2019-02-22T13:46:20.755Z,72.83
2019-02-22T13:48:50.390Z,74.07
2019-02-22T13:51:20.044Z,77.18
2019-02-22T13:53:49.674Z,72.55
2019-02-22T13:56:29.269Z,73.02
2019-02-22T13:58:50.573Z,76.05
2019-02-22T14:01:20.199Z,73.22
2019-02-22T14:03:49.780Z,73.01
2019-02-22T14:06:19.450Z,69.36
2019-02-22T14:08:49.048Z,70.15
2019-02-22T14:11:18.641Z,69.20
2019-02-22T14:13:48.341Z,70.97
2019-02-22T14:16:17.978Z,68.80
2019-02-22T14:18:47.611Z,68.55
2019-02-22T14:21:17.246Z,71.99
2019-02-22T14:23:46.835Z,69.10
2019-02-22T14:26:16.416Z,70.16
2019-02-22T14:28:46.051Z,69.46
2019-02-22T14:31:15.688Z,71.30
2019-02-22T14:33:45.275Z,73.77
2019-02-22T14:36:15.296Z,73.91
2019-02-22T14:38:44.908Z,85.28
2019-02-22T14:41:14.520Z,87.07
2019-02-22T14:43:44.139Z,91.48
2019-02-22T14:46:13.720Z,94.33
2019-02-22T14:48:43.319Z,100.00
2019-02-22T14:51:15.126Z,100.00
2019-02-22T14:53:44.206Z,100.00
2019-02-22T14:56:13.868Z,100.00
2019-02-22T14:58:43.567Z,100.00
2019-02-22T15:01:13.145Z,100.00
2019-02-22T15:03:42.720Z,100.00
2019-02-22T15:06:12.339Z,100.00
2019-02-22T15:08:41.984Z,100.00
2019-02-22T15:11:12.380Z,100.00
2019-02-22T15:13:41.956Z,100.00
2019-02-22T15:16:20.567Z,100.00
2019-02-22T15:18:50.178Z,100.00
2019-02-22T15:21:19.755Z,100.00
2019-02-22T15:23:49.391Z,100.00
2019-02-22T15:26:19.041Z,100.00
2019-02-22T15:28:48.635Z,100.00
2019-02-22T15:31:18.206Z,100.00
2019-02-22T15:33:48.167Z,100.00
2019-02-22T15:36:17.769Z,100.00
2019-02-22T15:38:47.455Z,100.00
2019-02-22T15:41:17.106Z,100.00
2019-02-22T15:43:47.094Z,100.00
2019-02-22T15:46:16.661Z,100.00
2019-02-22T15:48:46.240Z,100.00
2019-02-22T15:51:15.954Z,100.00
2019-02-22T15:53:45.577Z,100.00
2019-02-22T15:56:15.177Z,100.00
2019-02-22T15:58:44.798Z,100.00
2019-02-22T16:01:14.627Z,100.00
2019-02-22T16:04:01.594Z,100.00
2019-02-22T16:06:32.419Z,100.00
2019-02-22T16:09:02.065Z,100.00
2019-02-22T16:11:31.734Z,100.00
2019-02-22T16:14:01.339Z,100.00
2019-02-22T16:16:30.926Z,100.00
2019-02-22T16:19:00.570Z,100.00
2019-02-22T16:21:30.185Z,100.00
2019-02-22T16:23:59.782Z,100.00
2019-02-22T16:26:31.044Z,100.00
2019-02-22T16:29:00.639Z,100.00
2019-02-22T16:31:30.409Z,100.00
2019-02-22T16:34:00.077Z,100.00
2019-02-22T16:36:29.747Z,100.00
2019-02-22T16:38:59.440Z,100.00
2019-02-22T16:41:29.100Z,100.00
2019-02-22T16:43:58.933Z,100.00
2019-02-22T16:46:34.900Z,100.00
2019-02-22T16:49:00.033Z,100.00
2019-02-22T16:51:29.734Z,100.00
2019-02-22T16:53:59.397Z,100.00
2019-02-22T16:56:29.071Z,100.00
2019-02-22T16:58:58.732Z,100.00
2019-02-22T17:01:28.480Z,100.00
2019-02-22T17:03:58.148Z,100.00
2019-02-22T17:06:27.737Z,100.00
2019-02-22T17:08:57.482Z,100.00
2019-02-22T17:11:27.138Z,100.00
2019-02-22T17:13:56.822Z,100.00
2019-02-22T17:16:26.572Z,100.00
2019-02-22T17:18:56.219Z,100.00
2019-02-22T17:21:25.869Z,100.00
2019-02-22T17:23:55.487Z,100.00
2019-02-22T17:26:25.127Z,100.00
2019-02-22T17:28:54.748Z,100.00
2019-02-22T17:31:24.361Z,100.00
2019-02-22T17:33:54.060Z,100.00
2019-02-22T17:36:26.704Z,100.00
2019-02-22T17:38:55.042Z,100.00
2019-02-22T17:41:26.672Z,100.00
2019-02-22T17:43:56.274Z,100.00
2019-02-22T17:46:25.913Z,100.00
2019-02-22T17:48:55.510Z,100.00
2019-02-22T17:51:25.087Z,100.00
2019-02-22T17:53:54.720Z,100.00
2019-02-22T17:56:24.402Z,100.00
2019-02-22T17:58:54.042Z,100.00
2019-02-22T18:01:23.648Z,100.00
2019-02-22T18:03:53.233Z,100.00
2019-02-22T18:06:22.853Z,100.00
2019-02-22T18:08:52.447Z,100.00
2019-02-22T18:11:22.090Z,100.00
2019-02-22T18:13:51.709Z,100.00
2019-02-22T18:16:21.281Z,100.00
2019-02-22T18:18:50.888Z,100.00
2019-02-22T18:21:20.500Z,100.00
2019-02-22T18:23:50.158Z,100.00
2019-02-22T18:26:20.036Z,100.00
2019-02-22T18:28:49.635Z,100.00
2019-02-22T18:31:19.259Z,100.00
2019-02-22T18:33:48.892Z,100.00
2019-02-22T18:36:18.583Z,100.00
2019-02-22T18:38:48.162Z,100.00
2019-02-22T18:41:17.760Z,100.00
2019-02-22T18:43:47.399Z,100.00
2019-02-22T18:46:16.984Z,100.00
2019-02-22T18:48:46.653Z,100.00
2019-02-22T18:51:16.262Z,100.00
2019-02-22T18:53:45.845Z,100.00
2019-02-22T18:56:15.446Z,100.00
2019-02-22T18:58:45.142Z,100.00
2019-02-22T19:01:14.791Z,100.00
2019-02-22T19:03:44.369Z,100.00
2019-02-22T19:06:13.966Z,100.00
2019-02-22T19:08:43.864Z,100.00
2019-02-22T19:11:13.585Z,100.00
2019-02-22T19:13:43.202Z,100.00
2019-02-22T19:16:12.841Z,100.00
2019-02-22T19:18:42.489Z,100.00
2019-02-22T19:21:12.160Z,100.00
2019-02-22T19:23:41.782Z,100.00
2019-02-22T19:26:11.490Z,100.00
2019-02-22T19:28:41.118Z,100.00
2019-02-22T19:31:10.755Z,100.00
2019-02-22T19:33:40.373Z,100.00
2019-02-22T19:36:10.024Z,100.00
2019-02-22T19:38:39.640Z,100.00
2019-02-22T19:41:09.264Z,100.00
2019-02-22T19:43:38.855Z,100.00
2019-02-22T19:46:08.465Z,100.00
2019-02-22T19:48:38.125Z,100.00
2019-02-22T19:51:07.759Z,100.00
2019-02-22T19:53:37.358Z,100.00
2019-02-22T19:56:06.982Z,100.00
2019-02-22T19:58:38.316Z,100.00
2019-02-22T20:01:08.069Z,100.00
2019-02-22T20:03:37.671Z,100.00
2019-02-22T20:06:07.436Z,100.00
2019-02-22T20:08:37.102Z,100.00
2019-02-22T20:11:06.706Z,100.00
2019-02-22T20:13:36.305Z,100.00
2019-02-22T20:16:05.990Z,100.00
2019-02-22T20:18:35.650Z,100.00
2019-02-22T20:21:05.316Z,100.00
2019-02-22T20:23:34.935Z,100.00
2019-02-22T20:26:04.553Z,100.00
2019-02-22T20:28:35.191Z,100.00
2019-02-22T20:31:04.935Z,100.00
2019-02-22T20:33:34.526Z,100.00
2019-02-22T20:36:04.168Z,100.00
2019-02-22T20:38:33.875Z,100.00
2019-02-22T20:41:03.525Z,100.00
2019-02-22T20:43:33.179Z,100.00
2019-02-22T20:46:02.879Z,100.00
2019-02-22T20:48:32.574Z,100.00
2019-02-22T20:51:02.239Z,100.00
2019-02-22T20:53:31.877Z,100.00
2019-02-22T20:56:01.532Z,100.00
2019-02-22T20:58:31.265Z,100.00
2019-02-22T21:01:00.901Z,100.00
2019-02-22T21:03:30.549Z,100.00
2019-02-22T21:06:00.170Z,100.00
2019-02-22T21:08:29.830Z,99.83
2019-02-22T21:10:59.416Z,99.90
2019-02-22T21:13:29.007Z,95.64
2019-02-22T21:15:58.599Z,93.27
2019-02-22T21:18:28.194Z,93.50
2019-02-22T21:20:57.861Z,93.54
2019-02-22T21:23:27.526Z,94.96
2019-02-22T21:25:57.109Z,95.10
2019-02-22T21:28:26.742Z,98.21
2019-02-22T21:30:56.339Z,94.23
2019-02-22T21:33:25.981Z,95.74
2019-02-22T21:35:55.575Z,100.00
2019-02-22T21:38:25.181Z,100.00
2019-02-22T21:40:54.904Z,100.00
2019-02-22T21:43:24.491Z,100.00
2019-02-22T21:45:54.176Z,100.00
2019-02-22T21:48:27.505Z,100.00
2019-02-22T21:50:55.082Z,100.00
2019-02-22T21:53:25.255Z,100.00
2019-02-22T21:55:54.923Z,100.00
2019-02-22T21:58:24.585Z,100.00
2019-02-22T22:00:54.175Z,100.00
2019-02-22T22:03:23.806Z,100.00
2019-02-22T22:05:53.394Z,100.00
2019-02-22T22:08:23.043Z,100.00
2019-02-22T22:10:52.691Z,100.00
2019-02-22T22:13:22.294Z,100.00
2019-02-22T22:15:51.886Z,100.00
2019-02-22T22:18:21.493Z,100.00
2019-02-22T22:20:51.104Z,100.00
2019-02-22T22:23:20.751Z,100.00
2019-02-22T22:25:50.348Z,100.00
2019-02-22T22:28:20.035Z,100.00
2019-02-22T22:30:49.711Z,100.00
2019-02-22T22:33:19.306Z,100.00
2019-02-22T22:35:48.959Z,100.00
2019-02-22T22:38:18.584Z,100.00
2019-02-22T22:40:48.176Z,100.00
2019-02-22T22:43:17.797Z,100.00
2019-02-22T22:45:47.390Z,100.00
2019-02-22T22:48:17.001Z,100.00
2019-02-22T22:50:46.624Z,100.00
2019-02-22T22:53:16.275Z,100.00
2019-02-22T22:55:45.876Z,100.00
2019-02-22T22:58:15.468Z,100.00
2019-02-22T23:01:09.771Z,100.00
2019-02-22T23:03:39.691Z,100.00
2019-02-22T23:06:10.384Z,100.00
2019-02-22T23:08:39.988Z,100.00
2019-02-22T23:11:09.612Z,100.00
2019-02-22T23:13:39.256Z,100.00
2019-02-22T23:16:08.835Z,100.00
2019-02-22T23:18:38.729Z,100.00
2019-02-22T23:21:08.326Z,100.00
2019-02-22T23:23:37.896Z,100.00
2019-02-22T23:26:07.558Z,100.00
2019-02-22T23:28:37.123Z,100.00
2019-02-22T23:31:06.755Z,100.00
2019-02-22T23:33:36.344Z,100.00
2019-02-22T23:36:05.949Z,100.00
2019-02-22T23:38:35.545Z,100.00
2019-02-22T23:41:05.205Z,100.00
2019-02-22T23:43:34.836Z,100.00
2019-02-22T23:46:04.398Z,100.00
2019-02-22T23:48:33.996Z,100.00
2019-02-22T23:51:03.570Z,100.00
2019-02-22T23:53:33.152Z,100.00
2019-02-22T23:56:02.823Z,100.00
2019-02-22T23:58:32.373Z,100.00
